sensor_id;sensor_type;location;lat;lon;timestamp;P1;durP1;ratioP1;P2;durP2;ratioP2
4323;SDS011;2175;51.018;6.994;2024-03-02T00:01:26;4.30;;;2.20;;
4323;SDS011;2175;51.018;6.994;2024-03-02T00:03:53;4.53;;;2.40;;
4323;SDS011;2175;51.018;6.994;2024-03-02T00:06:20;3.60;;;2.20;;
4323;SDS011;2175;51.018;6.994;2024-03-02T00:08:49;3.53;;;2.20;;
4323;SDS011;2175;51.018;6.994;2024-03-02T00:11:15;5.40;;;2.63;;
4323;SDS011;2175;51.018;6.994;2024-03-02T00:13:41;3.40;;;2.23;;
4323;SDS011;2175;51.018;6.994;2024-03-02T00:16:07;4.37;;;2.67;;
4323;SDS011;2175;51.018;6.994;2024-03-02T00:18:34;4.40;;;2.33;;
4323;SDS011;2175;51.018;6.994;2024-03-02T00:21:00;3.33;;;2.30;;
4323;SDS011;2175;51.018;6.994;2024-03-02T00:23:30;6.10;;;2.77;;
4323;SDS011;2175;51.018;6.994;2024-03-02T00:25:57;2.97;;;2.27;;
4323;SDS011;2175;51.018;6.994;2024-03-02T00:28:31;3.70;;;2.50;;
4323;SDS011;2175;51.018;6.994;2024-03-02T00:31:08;8.60;;;2.50;;
4323;SDS011;2175;51.018;6.994;2024-03-02T00:33:46;3.70;;;2.20;;
4323;SDS011;2175;51.018;6.994;2024-03-02T00:36:17;5.57;;;2.80;;
4323;SDS011;2175;51.018;6.994;2024-03-02T00:38:48;5.23;;;2.80;;
4323;SDS011;2175;51.018;6.994;2024-03-02T00:41:24;3.80;;;2.23;;
4323;SDS011;2175;51.018;6.994;2024-03-02T00:46:26;4.47;;;2.63;;
4323;SDS011;2175;51.018;6.994;2024-03-02T00:51:19;2.57;;;2.17;;
4323;SDS011;2175;51.018;6.994;2024-03-02T00:53:46;3.60;;;2.30;;
4323;SDS011;2175;51.018;6.994;2024-03-02T00:56:12;2.77;;;1.83;;
4323;SDS011;2175;51.018;6.994;2024-03-02T00:58:39;4.00;;;2.07;;
4323;SDS011;2175;51.018;6.994;2024-03-02T01:01:05;4.10;;;2.33;;
4323;SDS011;2175;51.018;6.994;2024-03-02T01:03:32;4.00;;;2.03;;
4323;SDS011;2175;51.018;6.994;2024-03-02T01:05:58;8.77;;;2.17;;
4323;SDS011;2175;51.018;6.994;2024-03-02T01:08:25;4.50;;;2.30;;
4323;SDS011;2175;51.018;6.994;2024-03-02T01:10:54;3.30;;;1.90;;
4323;SDS011;2175;51.018;6.994;2024-03-02T01:13:21;3.70;;;2.37;;
4323;SDS011;2175;51.018;6.994;2024-03-02T01:15:48;3.03;;;2.27;;
4323;SDS011;2175;51.018;6.994;2024-03-02T01:18:14;3.27;;;2.30;;
4323;SDS011;2175;51.018;6.994;2024-03-02T01:20:40;3.83;;;2.20;;
4323;SDS011;2175;51.018;6.994;2024-03-02T01:23:06;2.83;;;1.70;;
4323;SDS011;2175;51.018;6.994;2024-03-02T01:25:32;4.10;;;2.40;;
4323;SDS011;2175;51.018;6.994;2024-03-02T01:27:58;2.70;;;2.00;;
4323;SDS011;2175;51.018;6.994;2024-03-02T01:30:24;4.73;;;2.40;;
4323;SDS011;2175;51.018;6.994;2024-03-02T01:32:50;4.03;;;2.17;;
4323;SDS011;2175;51.018;6.994;2024-03-02T01:35:16;9.10;;;2.27;;
4323;SDS011;2175;51.018;6.994;2024-03-02T01:37:42;4.87;;;1.77;;
4323;SDS011;2175;51.018;6.994;2024-03-02T01:40:08;4.30;;;2.37;;
4323;SDS011;2175;51.018;6.994;2024-03-02T01:42:36;3.57;;;2.30;;
4323;SDS011;2175;51.018;6.994;2024-03-02T01:45:02;3.83;;;2.03;;
4323;SDS011;2175;51.018;6.994;2024-03-02T01:47:28;5.60;;;2.20;;
4323;SDS011;2175;51.018;6.994;2024-03-02T01:49:55;3.10;;;2.13;;
4323;SDS011;2175;51.018;6.994;2024-03-02T01:52:22;3.30;;;2.03;;
4323;SDS011;2175;51.018;6.994;2024-03-02T01:54:48;5.37;;;2.33;;
4323;SDS011;2175;51.018;6.994;2024-03-02T01:57:14;5.67;;;2.23;;
4323;SDS011;2175;51.018;6.994;2024-03-02T01:59:40;3.57;;;2.07;;
4323;SDS011;2175;51.018;6.994;2024-03-02T02:02:06;6.60;;;2.03;;
4323;SDS011;2175;51.018;6.994;2024-03-02T02:04:32;4.43;;;2.00;;
4323;SDS011;2175;51.018;6.994;2024-03-02T02:06:58;3.50;;;2.27;;
4323;SDS011;2175;51.018;6.994;2024-03-02T02:09:25;2.83;;;2.00;;
4323;SDS011;2175;51.018;6.994;2024-03-02T02:11:51;3.93;;;2.10;;
4323;SDS011;2175;51.018;6.994;2024-03-02T02:14:17;3.40;;;1.93;;
4323;SDS011;2175;51.018;6.994;2024-03-02T02:16:43;3.73;;;2.50;;
4323;SDS011;2175;51.018;6.994;2024-03-02T02:19:09;6.73;;;2.23;;
4323;SDS011;2175;51.018;6.994;2024-03-02T02:21:35;6.60;;;2.43;;
4323;SDS011;2175;51.018;6.994;2024-03-02T02:24:01;4.60;;;2.00;;
4323;SDS011;2175;51.018;6.994;2024-03-02T02:26:28;4.10;;;2.17;;
4323;SDS011;2175;51.018;6.994;2024-03-02T02:28:55;3.00;;;2.20;;
4323;SDS011;2175;51.018;6.994;2024-03-02T02:31:21;4.70;;;2.20;;
4323;SDS011;2175;51.018;6.994;2024-03-02T02:33:47;4.03;;;1.90;;
4323;SDS011;2175;51.018;6.994;2024-03-02T02:36:13;3.90;;;2.10;;
4323;SDS011;2175;51.018;6.994;2024-03-02T02:38:40;3.40;;;2.10;;
4323;SDS011;2175;51.018;6.994;2024-03-02T02:41:08;4.90;;;2.27;;
4323;SDS011;2175;51.018;6.994;2024-03-02T02:43:34;2.33;;;1.90;;
4323;SDS011;2175;51.018;6.994;2024-03-02T02:46:00;3.80;;;2.00;;
4323;SDS011;2175;51.018;6.994;2024-03-02T02:48:26;2.93;;;1.90;;
4323;SDS011;2175;51.018;6.994;2024-03-02T02:50:52;4.17;;;1.90;;
4323;SDS011;2175;51.018;6.994;2024-03-02T02:53:18;2.93;;;2.00;;
4323;SDS011;2175;51.018;6.994;2024-03-02T02:55:44;4.00;;;2.10;;
4323;SDS011;2175;51.018;6.994;2024-03-02T02:58:10;2.80;;;2.00;;
4323;SDS011;2175;51.018;6.994;2024-03-02T03:00:36;3.33;;;2.03;;
4323;SDS011;2175;51.018;6.994;2024-03-02T03:03:02;3.10;;;2.03;;
4323;SDS011;2175;51.018;6.994;2024-03-02T03:05:28;3.50;;;2.10;;
4323;SDS011;2175;51.018;6.994;2024-03-02T03:07:54;4.83;;;2.00;;
4323;SDS011;2175;51.018;6.994;2024-03-02T03:10:20;4.10;;;2.40;;
4323;SDS011;2175;51.018;6.994;2024-03-02T03:12:48;7.20;;;2.17;;
4323;SDS011;2175;51.018;6.994;2024-03-02T03:15:14;2.20;;;1.60;;
4323;SDS011;2175;51.018;6.994;2024-03-02T03:17:43;3.43;;;2.33;;
4323;SDS011;2175;51.018;6.994;2024-03-02T03:20:11;3.77;;;2.50;;
4323;SDS011;2175;51.018;6.994;2024-03-02T03:22:38;3.20;;;1.70;;
4323;SDS011;2175;51.018;6.994;2024-03-02T03:25:04;4.80;;;2.37;;
4323;SDS011;2175;51.018;6.994;2024-03-02T03:27:30;4.53;;;2.10;;
4323;SDS011;2175;51.018;6.994;2024-03-02T03:29:57;3.90;;;2.20;;
4323;SDS011;2175;51.018;6.994;2024-03-02T03:32:23;3.23;;;2.10;;
4323;SDS011;2175;51.018;6.994;2024-03-02T03:34:49;3.43;;;2.30;;
4323;SDS011;2175;51.018;6.994;2024-03-02T03:37:15;7.07;;;2.47;;
4323;SDS011;2175;51.018;6.994;2024-03-02T03:39:41;2.80;;;2.10;;
4323;SDS011;2175;51.018;6.994;2024-03-02T03:42:07;5.70;;;2.33;;
4323;SDS011;2175;51.018;6.994;2024-03-02T03:44:33;4.53;;;2.23;;
4323;SDS011;2175;51.018;6.994;2024-03-02T03:46:59;4.27;;;2.30;;
4323;SDS011;2175;51.018;6.994;2024-03-02T03:49:28;3.67;;;2.30;;
4323;SDS011;2175;51.018;6.994;2024-03-02T03:51:54;3.77;;;2.40;;
4323;SDS011;2175;51.018;6.994;2024-03-02T03:54:20;3.73;;;2.00;;
4323;SDS011;2175;51.018;6.994;2024-03-02T03:56:46;5.30;;;2.20;;
4323;SDS011;2175;51.018;6.994;2024-03-02T03:59:12;2.80;;;2.00;;
4323;SDS011;2175;51.018;6.994;2024-03-02T04:01:38;5.13;;;2.00;;
4323;SDS011;2175;51.018;6.994;2024-03-02T04:04:04;3.57;;;2.00;;
4323;SDS011;2175;51.018;6.994;2024-03-02T04:06:30;3.03;;;2.20;;
4323;SDS011;2175;51.018;6.994;2024-03-02T04:08:56;3.73;;;1.70;;
4323;SDS011;2175;51.018;6.994;2024-03-02T04:11:22;3.37;;;2.03;;
4323;SDS011;2175;51.018;6.994;2024-03-02T04:13:48;6.17;;;2.10;;
4323;SDS011;2175;51.018;6.994;2024-03-02T04:16:14;5.93;;;2.00;;
4323;SDS011;2175;51.018;6.994;2024-03-02T04:18:40;4.97;;;2.17;;
4323;SDS011;2175;51.018;6.994;2024-03-02T04:21:06;4.20;;;2.20;;
4323;SDS011;2175;51.018;6.994;2024-03-02T04:23:32;5.20;;;2.30;;
4323;SDS011;2175;51.018;6.994;2024-03-02T04:25:58;4.87;;;2.20;;
4323;SDS011;2175;51.018;6.994;2024-03-02T04:28:24;3.23;;;2.00;;
4323;SDS011;2175;51.018;6.994;2024-03-02T04:30:50;3.40;;;1.90;;
4323;SDS011;2175;51.018;6.994;2024-03-02T04:33:16;3.50;;;2.50;;
4323;SDS011;2175;51.018;6.994;2024-03-02T04:35:42;4.00;;;1.97;;
4323;SDS011;2175;51.018;6.994;2024-03-02T04:38:08;4.47;;;2.13;;
4323;SDS011;2175;51.018;6.994;2024-03-02T04:40:34;2.70;;;2.00;;
4323;SDS011;2175;51.018;6.994;2024-03-02T04:43:00;2.87;;;1.70;;
4323;SDS011;2175;51.018;6.994;2024-03-02T04:45:27;3.50;;;2.07;;
4323;SDS011;2175;51.018;6.994;2024-03-02T04:47:53;8.93;;;2.40;;
4323;SDS011;2175;51.018;6.994;2024-03-02T04:50:19;2.60;;;2.17;;
4323;SDS011;2175;51.018;6.994;2024-03-02T04:52:45;3.30;;;2.53;;
4323;SDS011;2175;51.018;6.994;2024-03-02T04:55:11;3.77;;;2.10;;
4323;SDS011;2175;51.018;6.994;2024-03-02T04:57:52;6.00;;;2.20;;
4323;SDS011;2175;51.018;6.994;2024-03-02T05:00:21;3.00;;;2.20;;
4323;SDS011;2175;51.018;6.994;2024-03-02T05:02:47;3.30;;;2.30;;
4323;SDS011;2175;51.018;6.994;2024-03-02T05:05:13;4.20;;;2.40;;
4323;SDS011;2175;51.018;6.994;2024-03-02T05:07:42;4.80;;;2.50;;
4323;SDS011;2175;51.018;6.994;2024-03-02T05:10:09;3.30;;;2.30;;
4323;SDS011;2175;51.018;6.994;2024-03-02T05:12:36;2.90;;;1.97;;
4323;SDS011;2175;51.018;6.994;2024-03-02T05:15:09;3.40;;;1.90;;
4323;SDS011;2175;51.018;6.994;2024-03-02T05:17:44;3.20;;;2.30;;
4323;SDS011;2175;51.018;6.994;2024-03-02T05:20:10;2.90;;;1.90;;
4323;SDS011;2175;51.018;6.994;2024-03-02T05:22:36;3.43;;;2.10;;
4323;SDS011;2175;51.018;6.994;2024-03-02T05:25:03;3.80;;;2.03;;
4323;SDS011;2175;51.018;6.994;2024-03-02T05:27:29;3.23;;;2.40;;
4323;SDS011;2175;51.018;6.994;2024-03-02T05:29:56;3.87;;;2.70;;
4323;SDS011;2175;51.018;6.994;2024-03-02T05:32:23;5.60;;;2.70;;
4323;SDS011;2175;51.018;6.994;2024-03-02T05:34:49;3.20;;;2.37;;
4323;SDS011;2175;51.018;6.994;2024-03-02T05:37:18;5.37;;;2.73;;
4323;SDS011;2175;51.018;6.994;2024-03-02T05:39:44;3.53;;;2.23;;
4323;SDS011;2175;51.018;6.994;2024-03-02T05:42:10;3.90;;;2.50;;
4323;SDS011;2175;51.018;6.994;2024-03-02T05:44:36;2.97;;;2.20;;
4323;SDS011;2175;51.018;6.994;2024-03-02T05:47:03;3.90;;;2.43;;
4323;SDS011;2175;51.018;6.994;2024-03-02T05:49:29;5.67;;;2.90;;
4323;SDS011;2175;51.018;6.994;2024-03-02T05:51:55;4.10;;;2.70;;
4323;SDS011;2175;51.018;6.994;2024-03-02T05:54:21;6.00;;;2.70;;
4323;SDS011;2175;51.018;6.994;2024-03-02T05:56:47;5.53;;;2.57;;
4323;SDS011;2175;51.018;6.994;2024-03-02T05:59:13;4.73;;;2.30;;
4323;SDS011;2175;51.018;6.994;2024-03-02T06:01:40;4.50;;;2.77;;
4323;SDS011;2175;51.018;6.994;2024-03-02T06:04:06;6.27;;;2.80;;
4323;SDS011;2175;51.018;6.994;2024-03-02T06:06:33;3.43;;;2.40;;
4323;SDS011;2175;51.018;6.994;2024-03-02T06:08:59;4.37;;;2.73;;
4323;SDS011;2175;51.018;6.994;2024-03-02T06:11:25;4.80;;;2.40;;
4323;SDS011;2175;51.018;6.994;2024-03-02T06:13:52;4.53;;;2.30;;
4323;SDS011;2175;51.018;6.994;2024-03-02T06:16:18;3.97;;;2.80;;
4323;SDS011;2175;51.018;6.994;2024-03-02T06:18:44;4.73;;;2.53;;
4323;SDS011;2175;51.018;6.994;2024-03-02T06:21:10;6.40;;;3.10;;
4323;SDS011;2175;51.018;6.994;2024-03-02T06:23:36;3.67;;;2.60;;
4323;SDS011;2175;51.018;6.994;2024-03-02T06:26:02;5.10;;;2.87;;
4323;SDS011;2175;51.018;6.994;2024-03-02T06:28:28;11.60;;;3.10;;
4323;SDS011;2175;51.018;6.994;2024-03-02T06:30:54;6.43;;;3.20;;
4323;SDS011;2175;51.018;6.994;2024-03-02T06:33:20;6.37;;;3.07;;
4323;SDS011;2175;51.018;6.994;2024-03-02T06:35:46;6.70;;;3.00;;
4323;SDS011;2175;51.018;6.994;2024-03-02T06:38:14;6.47;;;3.13;;
4323;SDS011;2175;51.018;6.994;2024-03-02T06:40:40;6.93;;;3.23;;
4323;SDS011;2175;51.018;6.994;2024-03-02T06:43:06;6.40;;;3.30;;
4323;SDS011;2175;51.018;6.994;2024-03-02T06:45:32;6.40;;;2.90;;
4323;SDS011;2175;51.018;6.994;2024-03-02T06:47:59;4.37;;;3.43;;
4323;SDS011;2175;51.018;6.994;2024-03-02T06:50:25;4.90;;;3.00;;
4323;SDS011;2175;51.018;6.994;2024-03-02T06:52:51;5.03;;;2.93;;
4323;SDS011;2175;51.018;6.994;2024-03-02T06:55:18;4.57;;;3.00;;
4323;SDS011;2175;51.018;6.994;2024-03-02T06:57:44;4.43;;;2.80;;
4323;SDS011;2175;51.018;6.994;2024-03-02T07:00:10;6.70;;;3.60;;
4323;SDS011;2175;51.018;6.994;2024-03-02T07:02:36;5.13;;;3.10;;
4323;SDS011;2175;51.018;6.994;2024-03-02T07:05:02;4.70;;;3.30;;
4323;SDS011;2175;51.018;6.994;2024-03-02T07:07:29;6.20;;;3.10;;
4323;SDS011;2175;51.018;6.994;2024-03-02T07:09:55;4.20;;;3.23;;
4323;SDS011;2175;51.018;6.994;2024-03-02T07:12:20;7.60;;;3.63;;
4323;SDS011;2175;51.018;6.994;2024-03-02T07:14:46;4.03;;;3.40;;
4323;SDS011;2175;51.018;6.994;2024-03-02T07:17:28;4.20;;;3.50;;
4323;SDS011;2175;51.018;6.994;2024-03-02T07:19:54;7.20;;;3.20;;
4323;SDS011;2175;51.018;6.994;2024-03-02T07:22:20;6.43;;;3.10;;
4323;SDS011;2175;51.018;6.994;2024-03-02T07:24:46;6.93;;;3.87;;
4323;SDS011;2175;51.018;6.994;2024-03-02T07:27:12;7.17;;;3.03;;
4323;SDS011;2175;51.018;6.994;2024-03-02T07:29:38;4.77;;;3.00;;
4323;SDS011;2175;51.018;6.994;2024-03-02T07:32:05;5.93;;;3.63;;
4323;SDS011;2175;51.018;6.994;2024-03-02T07:34:31;6.20;;;3.40;;
4323;SDS011;2175;51.018;6.994;2024-03-02T07:36:57;6.77;;;4.17;;
4323;SDS011;2175;51.018;6.994;2024-03-02T07:39:23;5.23;;;3.30;;
4323;SDS011;2175;51.018;6.994;2024-03-02T07:41:50;6.03;;;3.70;;
4323;SDS011;2175;51.018;6.994;2024-03-02T07:44:16;6.50;;;3.80;;
4323;SDS011;2175;51.018;6.994;2024-03-02T07:46:44;4.53;;;3.73;;
4323;SDS011;2175;51.018;6.994;2024-03-02T07:49:20;5.97;;;3.97;;
4323;SDS011;2175;51.018;6.994;2024-03-02T07:51:46;6.50;;;3.70;;
4323;SDS011;2175;51.018;6.994;2024-03-02T07:54:12;6.63;;;3.50;;
4323;SDS011;2175;51.018;6.994;2024-03-02T07:56:38;8.17;;;3.50;;
4323;SDS011;2175;51.018;6.994;2024-03-02T07:59:04;6.10;;;3.70;;
4323;SDS011;2175;51.018;6.994;2024-03-02T08:01:33;8.80;;;3.00;;
4323;SDS011;2175;51.018;6.994;2024-03-02T08:04:00;7.97;;;3.30;;
4323;SDS011;2175;51.018;6.994;2024-03-02T08:06:26;5.40;;;3.13;;
4323;SDS011;2175;51.018;6.994;2024-03-02T08:08:53;5.30;;;3.37;;
4323;SDS011;2175;51.018;6.994;2024-03-02T08:11:19;6.03;;;3.47;;
4323;SDS011;2175;51.018;6.994;2024-03-02T08:13:45;4.93;;;3.07;;
4323;SDS011;2175;51.018;6.994;2024-03-02T08:16:11;5.67;;;3.80;;
4323;SDS011;2175;51.018;6.994;2024-03-02T08:18:37;4.60;;;2.67;;
4323;SDS011;2175;51.018;6.994;2024-03-02T08:21:03;5.07;;;2.90;;
4323;SDS011;2175;51.018;6.994;2024-03-02T08:23:29;4.13;;;2.80;;
4323;SDS011;2175;51.018;6.994;2024-03-02T08:25:57;4.20;;;2.93;;
4323;SDS011;2175;51.018;6.994;2024-03-02T08:28:23;5.10;;;3.00;;
4323;SDS011;2175;51.018;6.994;2024-03-02T08:30:49;5.00;;;3.00;;
4323;SDS011;2175;51.018;6.994;2024-03-02T08:33:15;5.30;;;3.53;;
4323;SDS011;2175;51.018;6.994;2024-03-02T08:35:41;5.30;;;3.00;;
4323;SDS011;2175;51.018;6.994;2024-03-02T08:38:07;4.87;;;3.47;;
4323;SDS011;2175;51.018;6.994;2024-03-02T08:40:33;5.97;;;3.40;;
4323;SDS011;2175;51.018;6.994;2024-03-02T08:42:59;7.17;;;3.23;;
4323;SDS011;2175;51.018;6.994;2024-03-02T08:45:25;8.37;;;3.30;;
4323;SDS011;2175;51.018;6.994;2024-03-02T08:47:51;5.90;;;3.30;;
4323;SDS011;2175;51.018;6.994;2024-03-02T08:50:17;7.20;;;3.20;;
4323;SDS011;2175;51.018;6.994;2024-03-02T08:52:43;5.47;;;3.03;;
4323;SDS011;2175;51.018;6.994;2024-03-02T08:55:09;6.13;;;3.20;;
4323;SDS011;2175;51.018;6.994;2024-03-02T08:57:36;3.60;;;2.50;;
4323;SDS011;2175;51.018;6.994;2024-03-02T09:00:02;4.83;;;3.03;;
4323;SDS011;2175;51.018;6.994;2024-03-02T09:02:30;4.50;;;3.23;;
4323;SDS011;2175;51.018;6.994;2024-03-02T09:04:56;4.63;;;2.60;;
4323;SDS011;2175;51.018;6.994;2024-03-02T09:07:22;4.37;;;2.40;;
4323;SDS011;2175;51.018;6.994;2024-03-02T09:09:48;4.83;;;2.60;;
4323;SDS011;2175;51.018;6.994;2024-03-02T09:12:14;3.70;;;2.33;;
4323;SDS011;2175;51.018;6.994;2024-03-02T09:14:40;3.53;;;2.37;;
4323;SDS011;2175;51.018;6.994;2024-03-02T09:17:06;4.57;;;2.63;;
4323;SDS011;2175;51.018;6.994;2024-03-02T09:19:33;4.23;;;2.50;;
4323;SDS011;2175;51.018;6.994;2024-03-02T09:21:59;3.40;;;2.13;;
4323;SDS011;2175;51.018;6.994;2024-03-02T09:24:28;4.73;;;2.20;;
4323;SDS011;2175;51.018;6.994;2024-03-02T09:26:54;3.80;;;1.93;;
4323;SDS011;2175;51.018;6.994;2024-03-02T09:29:20;3.60;;;2.20;;
4323;SDS011;2175;51.018;6.994;2024-03-02T09:31:46;4.33;;;2.00;;
4323;SDS011;2175;51.018;6.994;2024-03-02T09:34:12;4.27;;;2.20;;
4323;SDS011;2175;51.018;6.994;2024-03-02T09:36:39;3.93;;;1.90;;
4323;SDS011;2175;51.018;6.994;2024-03-02T09:39:07;3.67;;;2.10;;
4323;SDS011;2175;51.018;6.994;2024-03-02T09:41:34;5.43;;;2.03;;
4323;SDS011;2175;51.018;6.994;2024-03-02T09:44:00;5.83;;;2.53;;
4323;SDS011;2175;51.018;6.994;2024-03-02T09:46:27;5.00;;;2.20;;
4323;SDS011;2175;51.018;6.994;2024-03-02T09:48:53;4.57;;;2.00;;
4323;SDS011;2175;51.018;6.994;2024-03-02T09:51:19;3.60;;;2.20;;
4323;SDS011;2175;51.018;6.994;2024-03-02T09:53:45;3.07;;;2.20;;
4323;SDS011;2175;51.018;6.994;2024-03-02T09:56:12;3.80;;;2.23;;
4323;SDS011;2175;51.018;6.994;2024-03-02T09:58:38;3.67;;;2.00;;
4323;SDS011;2175;51.018;6.994;2024-03-02T10:01:07;4.77;;;2.20;;
4323;SDS011;2175;51.018;6.994;2024-03-02T10:03:36;3.73;;;2.13;;
4323;SDS011;2175;51.018;6.994;2024-03-02T10:08:46;5.00;;;2.10;;
4323;SDS011;2175;51.018;6.994;2024-03-02T10:11:33;3.03;;;1.70;;
4323;SDS011;2175;51.018;6.994;2024-03-02T10:14:08;3.47;;;1.80;;
4323;SDS011;2175;51.018;6.994;2024-03-02T10:16:38;3.57;;;1.80;;
4323;SDS011;2175;51.018;6.994;2024-03-02T10:19:38;3.30;;;2.07;;
4323;SDS011;2175;51.018;6.994;2024-03-02T10:22:01;3.70;;;2.23;;
4323;SDS011;2175;51.018;6.994;2024-03-02T10:24:28;4.10;;;1.67;;
4323;SDS011;2175;51.018;6.994;2024-03-02T10:26:54;5.63;;;2.10;;
4323;SDS011;2175;51.018;6.994;2024-03-02T10:29:21;3.63;;;2.00;;
4323;SDS011;2175;51.018;6.994;2024-03-02T10:31:47;4.10;;;1.90;;
4323;SDS011;2175;51.018;6.994;2024-03-02T10:34:13;3.30;;;1.97;;
4323;SDS011;2175;51.018;6.994;2024-03-02T10:36:41;3.93;;;1.73;;
4323;SDS011;2175;51.018;6.994;2024-03-02T10:39:08;3.80;;;1.90;;
4323;SDS011;2175;51.018;6.994;2024-03-02T10:41:35;3.70;;;2.07;;
4323;SDS011;2175;51.018;6.994;2024-03-02T10:44:02;6.87;;;2.30;;
4323;SDS011;2175;51.018;6.994;2024-03-02T10:46:29;3.10;;;1.90;;
4323;SDS011;2175;51.018;6.994;2024-03-02T10:49:02;4.57;;;1.97;;
4323;SDS011;2175;51.018;6.994;2024-03-02T10:51:30;3.13;;;2.13;;
4323;SDS011;2175;51.018;6.994;2024-03-02T10:54:01;2.97;;;1.90;;
4323;SDS011;2175;51.018;6.994;2024-03-02T10:56:29;5.97;;;2.13;;
4323;SDS011;2175;51.018;6.994;2024-03-02T10:58:56;5.17;;;1.90;;
4323;SDS011;2175;51.018;6.994;2024-03-02T11:01:27;5.33;;;1.87;;
4323;SDS011;2175;51.018;6.994;2024-03-02T11:03:54;3.40;;;1.83;;
4323;SDS011;2175;51.018;6.994;2024-03-02T11:06:20;4.40;;;2.03;;
4323;SDS011;2175;51.018;6.994;2024-03-02T11:08:48;4.33;;;2.23;;
4323;SDS011;2175;51.018;6.994;2024-03-02T11:11:15;3.10;;;1.80;;
4323;SDS011;2175;51.018;6.994;2024-03-02T11:13:47;5.47;;;2.40;;
4323;SDS011;2175;51.018;6.994;2024-03-02T11:16:36;5.90;;;2.27;;
4323;SDS011;2175;51.018;6.994;2024-03-02T11:19:11;4.50;;;2.00;;
4323;SDS011;2175;51.018;6.994;2024-03-02T11:21:37;3.77;;;2.17;;
4323;SDS011;2175;51.018;6.994;2024-03-02T11:26:49;6.43;;;2.00;;
4323;SDS011;2175;51.018;6.994;2024-03-02T11:32:03;3.07;;;1.70;;
4323;SDS011;2175;51.018;6.994;2024-03-02T11:34:30;4.60;;;2.20;;
4323;SDS011;2175;51.018;6.994;2024-03-02T11:36:57;5.47;;;2.23;;
4323;SDS011;2175;51.018;6.994;2024-03-02T11:39:24;3.00;;;1.97;;
4323;SDS011;2175;51.018;6.994;2024-03-02T11:41:51;4.07;;;2.10;;
4323;SDS011;2175;51.018;6.994;2024-03-02T11:44:17;5.70;;;2.13;;
4323;SDS011;2175;51.018;6.994;2024-03-02T11:46:45;4.17;;;2.17;;
4323;SDS011;2175;51.018;6.994;2024-03-02T11:49:14;3.20;;;2.20;;
4323;SDS011;2175;51.018;6.994;2024-03-02T11:51:50;3.63;;;1.63;;
4323;SDS011;2175;51.018;6.994;2024-03-02T11:54:18;6.17;;;2.00;;
4323;SDS011;2175;51.018;6.994;2024-03-02T11:56:45;4.20;;;1.90;;
4323;SDS011;2175;51.018;6.994;2024-03-02T11:59:11;2.60;;;1.70;;
4323;SDS011;2175;51.018;6.994;2024-03-02T12:01:39;3.10;;;1.63;;
4323;SDS011;2175;51.018;6.994;2024-03-02T12:06:35;3.00;;;2.10;;
4323;SDS011;2175;51.018;6.994;2024-03-02T12:11:36;5.83;;;2.10;;
4323;SDS011;2175;51.018;6.994;2024-03-02T12:14:02;3.70;;;1.83;;
4323;SDS011;2175;51.018;6.994;2024-03-02T12:16:29;2.53;;;1.80;;
4323;SDS011;2175;51.018;6.994;2024-03-02T12:18:55;3.50;;;2.17;;
4323;SDS011;2175;51.018;6.994;2024-03-02T12:21:21;3.00;;;1.90;;
4323;SDS011;2175;51.018;6.994;2024-03-02T12:23:47;5.53;;;1.80;;
4323;SDS011;2175;51.018;6.994;2024-03-02T12:28:45;5.80;;;1.87;;
4323;SDS011;2175;51.018;6.994;2024-03-02T12:31:13;2.63;;;1.60;;
4323;SDS011;2175;51.018;6.994;2024-03-02T12:33:39;3.30;;;1.70;;
4323;SDS011;2175;51.018;6.994;2024-03-02T12:36:09;3.27;;;1.90;;
4323;SDS011;2175;51.018;6.994;2024-03-02T12:38:37;5.20;;;2.17;;
4323;SDS011;2175;51.018;6.994;2024-03-02T12:41:03;4.10;;;1.57;;
4323;SDS011;2175;51.018;6.994;2024-03-02T12:43:31;3.93;;;2.00;;
4323;SDS011;2175;51.018;6.994;2024-03-02T12:45:57;2.53;;;1.80;;
4323;SDS011;2175;51.018;6.994;2024-03-02T12:48:24;3.30;;;1.90;;
4323;SDS011;2175;51.018;6.994;2024-03-02T12:50:50;5.13;;;2.00;;
4323;SDS011;2175;51.018;6.994;2024-03-02T12:53:16;2.90;;;1.70;;
4323;SDS011;2175;51.018;6.994;2024-03-02T12:55:42;5.00;;;2.10;;
4323;SDS011;2175;51.018;6.994;2024-03-02T12:58:16;3.80;;;2.37;;
4323;SDS011;2175;51.018;6.994;2024-03-02T13:00:42;3.27;;;2.03;;
4323;SDS011;2175;51.018;6.994;2024-03-02T13:03:08;3.60;;;1.80;;
4323;SDS011;2175;51.018;6.994;2024-03-02T13:05:34;3.10;;;1.87;;
4323;SDS011;2175;51.018;6.994;2024-03-02T13:08:00;2.30;;;1.50;;
4323;SDS011;2175;51.018;6.994;2024-03-02T13:10:28;3.07;;;1.70;;
4323;SDS011;2175;51.018;6.994;2024-03-02T13:12:55;6.60;;;1.90;;
4323;SDS011;2175;51.018;6.994;2024-03-02T13:15:21;4.07;;;1.90;;
4323;SDS011;2175;51.018;6.994;2024-03-02T13:17:48;2.67;;;1.77;;
4323;SDS011;2175;51.018;6.994;2024-03-02T13:20:15;3.00;;;1.80;;
4323;SDS011;2175;51.018;6.994;2024-03-02T13:22:43;3.03;;;1.80;;
4323;SDS011;2175;51.018;6.994;2024-03-02T13:25:09;3.97;;;2.00;;
4323;SDS011;2175;51.018;6.994;2024-03-02T13:27:36;3.90;;;1.90;;
4323;SDS011;2175;51.018;6.994;2024-03-02T13:30:02;3.63;;;1.60;;
4323;SDS011;2175;51.018;6.994;2024-03-02T13:32:30;2.00;;;1.43;;
4323;SDS011;2175;51.018;6.994;2024-03-02T13:34:56;2.70;;;1.60;;
4323;SDS011;2175;51.018;6.994;2024-03-02T13:37:22;2.67;;;1.60;;
4323;SDS011;2175;51.018;6.994;2024-03-02T13:39:48;2.67;;;1.77;;
4323;SDS011;2175;51.018;6.994;2024-03-02T13:42:14;2.67;;;1.70;;
4323;SDS011;2175;51.018;6.994;2024-03-02T13:44:42;5.77;;;2.07;;
4323;SDS011;2175;51.018;6.994;2024-03-02T13:47:10;2.07;;;1.60;;
4323;SDS011;2175;51.018;6.994;2024-03-02T13:49:36;3.40;;;1.80;;
4323;SDS011;2175;51.018;6.994;2024-03-02T13:52:05;3.60;;;1.80;;
4323;SDS011;2175;51.018;6.994;2024-03-02T13:54:42;3.30;;;1.77;;
4323;SDS011;2175;51.018;6.994;2024-03-02T13:57:09;3.20;;;1.60;;
4323;SDS011;2175;51.018;6.994;2024-03-02T13:59:35;2.30;;;1.70;;
4323;SDS011;2175;51.018;6.994;2024-03-02T14:02:01;3.50;;;1.90;;
4323;SDS011;2175;51.018;6.994;2024-03-02T14:04:31;3.53;;;1.70;;
4323;SDS011;2175;51.018;6.994;2024-03-02T14:06:58;6.70;;;1.90;;
4323;SDS011;2175;51.018;6.994;2024-03-02T14:09:24;4.10;;;1.77;;
4323;SDS011;2175;51.018;6.994;2024-03-02T14:11:50;2.23;;;1.77;;
4323;SDS011;2175;51.018;6.994;2024-03-02T14:14:17;2.60;;;1.77;;
4323;SDS011;2175;51.018;6.994;2024-03-02T14:16:43;1.90;;;1.50;;
4323;SDS011;2175;51.018;6.994;2024-03-02T14:19:10;4.30;;;1.70;;
4323;SDS011;2175;51.018;6.994;2024-03-02T14:21:36;3.57;;;1.77;;
4323;SDS011;2175;51.018;6.994;2024-03-02T14:24:02;1.93;;;1.63;;
4323;SDS011;2175;51.018;6.994;2024-03-02T14:26:28;3.03;;;1.90;;
4323;SDS011;2175;51.018;6.994;2024-03-02T14:28:54;2.50;;;1.60;;
4323;SDS011;2175;51.018;6.994;2024-03-02T14:31:20;3.87;;;1.87;;
4323;SDS011;2175;51.018;6.994;2024-03-02T14:33:47;5.27;;;2.03;;
4323;SDS011;2175;51.018;6.994;2024-03-02T14:36:13;2.10;;;1.70;;
4323;SDS011;2175;51.018;6.994;2024-03-02T14:38:39;2.33;;;1.70;;
4323;SDS011;2175;51.018;6.994;2024-03-02T14:41:05;4.30;;;2.10;;
4323;SDS011;2175;51.018;6.994;2024-03-02T14:43:31;3.90;;;1.70;;
4323;SDS011;2175;51.018;6.994;2024-03-02T14:45:57;2.73;;;1.60;;
4323;SDS011;2175;51.018;6.994;2024-03-02T14:48:24;3.80;;;2.00;;
4323;SDS011;2175;51.018;6.994;2024-03-02T14:50:50;4.47;;;1.70;;
4323;SDS011;2175;51.018;6.994;2024-03-02T14:53:16;2.03;;;1.60;;
4323;SDS011;2175;51.018;6.994;2024-03-02T14:55:43;3.07;;;1.60;;
4323;SDS011;2175;51.018;6.994;2024-03-02T14:58:09;4.47;;;1.80;;
4323;SDS011;2175;51.018;6.994;2024-03-02T15:00:35;3.93;;;1.80;;
4323;SDS011;2175;51.018;6.994;2024-03-02T15:03:01;4.20;;;1.60;;
4323;SDS011;2175;51.018;6.994;2024-03-02T15:05:28;3.83;;;1.63;;
4323;SDS011;2175;51.018;6.994;2024-03-02T15:07:54;3.93;;;1.80;;
4323;SDS011;2175;51.018;6.994;2024-03-02T15:10:23;4.40;;;1.67;;
4323;SDS011;2175;51.018;6.994;2024-03-02T15:12:49;2.63;;;1.77;;
4323;SDS011;2175;51.018;6.994;2024-03-02T15:15:15;2.20;;;1.60;;
4323;SDS011;2175;51.018;6.994;2024-03-02T15:17:41;3.00;;;1.67;;
4323;SDS011;2175;51.018;6.994;2024-03-02T15:20:08;3.00;;;1.70;;
4323;SDS011;2175;51.018;6.994;2024-03-02T15:22:34;2.63;;;1.80;;
4323;SDS011;2175;51.018;6.994;2024-03-02T15:25:00;2.10;;;1.40;;
4323;SDS011;2175;51.018;6.994;2024-03-02T15:27:26;2.70;;;1.50;;
4323;SDS011;2175;51.018;6.994;2024-03-02T15:29:52;2.90;;;2.00;;
4323;SDS011;2175;51.018;6.994;2024-03-02T15:32:20;3.43;;;1.90;;
4323;SDS011;2175;51.018;6.994;2024-03-02T15:34:46;3.13;;;1.70;;